Terminal Aerodrome Forecast
Issued by NWS

Home | Current Version | Previous Version | Text Only | Print | Product List | Glossary On
Versions: 1 2 3 4 5 6 7 8 9 10 11 12 13 14 15 16 17 18 19 20 21 22 23 24 25 26 27 28 29 30 31 32 33 34 35 36 37 38
000
FTAK31 PANC 231609 AAB
TAFAIL
TAF AMD
PAIL 231609Z 2316/2412 23007KT 6SM -RA BR SCT008 OVC015
      TEMPO 2316/2318 3SM -RA BR OVC008
     FM231800 21005KT P6SM VCFG SCT008 OVC025
     FM232000 20007KT P6SM VCSH SCT025 OVC045
     FM240600 18006KT P6SM OVC025=

USA.gov is the U.S. government's official web portal to all federal, state and local government web resources and services.